sensor_id;sensor_type;location;lat;lon;timestamp;P1;durP1;ratioP1;P2;durP2;ratioP2
75005;SDS011;63553;51.814;4.600;2023-05-16T00:02:17;4.33;;;1.53;;
75005;SDS011;63553;51.814;4.600;2023-05-16T00:04:42;6.60;;;1.58;;
75005;SDS011;63553;51.814;4.600;2023-05-16T00:07:08;7.20;;;2.10;;
75005;SDS011;63553;51.814;4.600;2023-05-16T00:09:33;3.47;;;1.30;;
75005;SDS011;63553;51.814;4.600;2023-05-16T00:11:59;5.40;;;1.40;;
75005;SDS011;63553;51.814;4.600;2023-05-16T00:14:24;8.47;;;1.83;;
75005;SDS011;63553;51.814;4.600;2023-05-16T00:16:51;4.60;;;1.63;;
75005;SDS011;63553;51.814;4.600;2023-05-16T00:19:17;7.22;;;1.52;;
75005;SDS011;63553;51.814;4.600;2023-05-16T00:21:42;9.70;;;1.85;;
75005;SDS011;63553;51.814;4.600;2023-05-16T00:24:08;6.15;;;1.45;;
75005;SDS011;63553;51.814;4.600;2023-05-16T00:26:34;7.78;;;2.10;;
75005;SDS011;63553;51.814;4.600;2023-05-16T00:28:59;5.85;;;2.15;;
75005;SDS011;63553;51.814;4.600;2023-05-16T00:31:26;6.75;;;1.48;;
75005;SDS011;63553;51.814;4.600;2023-05-16T00:33:51;6.45;;;1.45;;
75005;SDS011;63553;51.814;4.600;2023-05-16T00:36:17;5.22;;;1.35;;
75005;SDS011;63553;51.814;4.600;2023-05-16T00:38:42;6.37;;;1.70;;
75005;SDS011;63553;51.814;4.600;2023-05-16T00:41:07;5.90;;;1.50;;
75005;SDS011;63553;51.814;4.600;2023-05-16T00:43:33;6.23;;;1.43;;
75005;SDS011;63553;51.814;4.600;2023-05-16T00:45:58;8.15;;;1.70;;
75005;SDS011;63553;51.814;4.600;2023-05-16T00:48:24;10.27;;;1.75;;
75005;SDS011;63553;51.814;4.600;2023-05-16T00:50:50;7.50;;;1.40;;
75005;SDS011;63553;51.814;4.600;2023-05-16T00:53:16;8.73;;;1.70;;
75005;SDS011;63553;51.814;4.600;2023-05-16T00:55:42;2.58;;;1.45;;
75005;SDS011;63553;51.814;4.600;2023-05-16T00:58:08;7.22;;;1.80;;
75005;SDS011;63553;51.814;4.600;2023-05-16T01:00:35;5.47;;;1.67;;
75005;SDS011;63553;51.814;4.600;2023-05-16T01:03:01;7.80;;;1.77;;
75005;SDS011;63553;51.814;4.600;2023-05-16T01:05:29;5.63;;;1.77;;
75005;SDS011;63553;51.814;4.600;2023-05-16T01:07:55;4.65;;;1.42;;
75005;SDS011;63553;51.814;4.600;2023-05-16T01:10:20;9.50;;;2.47;;
75005;SDS011;63553;51.814;4.600;2023-05-16T01:15:35;8.93;;;2.05;;
75005;SDS011;63553;51.814;4.600;2023-05-16T01:21:00;7.78;;;1.50;;
75005;SDS011;63553;51.814;4.600;2023-05-16T01:23:39;8.00;;;1.50;;
75005;SDS011;63553;51.814;4.600;2023-05-16T01:26:27;7.95;;;1.50;;
75005;SDS011;63553;51.814;4.600;2023-05-16T01:28:54;3.33;;;1.60;;
75005;SDS011;63553;51.814;4.600;2023-05-16T01:31:20;9.13;;;1.70;;
75005;SDS011;63553;51.814;4.600;2023-05-16T01:33:46;9.20;;;1.80;;
75005;SDS011;63553;51.814;4.600;2023-05-16T01:36:14;5.07;;;1.50;;
75005;SDS011;63553;51.814;4.600;2023-05-16T01:41:38;5.53;;;1.63;;
75005;SDS011;63553;51.814;4.600;2023-05-16T01:44:18;7.65;;;1.77;;
75005;SDS011;63553;51.814;4.600;2023-05-16T01:46:49;4.25;;;1.60;;
75005;SDS011;63553;51.814;4.600;2023-05-16T01:51:56;4.78;;;1.40;;
75005;SDS011;63553;51.814;4.600;2023-05-16T01:54:26;5.10;;;1.20;;
75005;SDS011;63553;51.814;4.600;2023-05-16T01:56:55;4.00;;;1.20;;
75005;SDS011;63553;51.814;4.600;2023-05-16T01:59:22;6.85;;;1.85;;
75005;SDS011;63553;51.814;4.600;2023-05-16T02:01:48;8.07;;;1.63;;
75005;SDS011;63553;51.814;4.600;2023-05-16T02:04:17;10.30;;;2.10;;
75005;SDS011;63553;51.814;4.600;2023-05-16T02:06:43;7.10;;;1.70;;
75005;SDS011;63553;51.814;4.600;2023-05-16T02:09:08;9.52;;;1.63;;
75005;SDS011;63553;51.814;4.600;2023-05-16T02:11:33;4.30;;;1.50;;
75005;SDS011;63553;51.814;4.600;2023-05-16T02:13:59;6.57;;;1.88;;
75005;SDS011;63553;51.814;4.600;2023-05-16T02:16:24;5.28;;;1.50;;
75005;SDS011;63553;51.814;4.600;2023-05-16T02:18:50;7.23;;;1.57;;
75005;SDS011;63553;51.814;4.600;2023-05-16T02:21:15;6.57;;;1.30;;
75005;SDS011;63553;51.814;4.600;2023-05-16T02:23:40;4.47;;;1.37;;
75005;SDS011;63553;51.814;4.600;2023-05-16T02:26:06;2.83;;;1.53;;
75005;SDS011;63553;51.814;4.600;2023-05-16T02:28:31;2.70;;;1.30;;
75005;SDS011;63553;51.814;4.600;2023-05-16T02:30:57;6.40;;;1.73;;
75005;SDS011;63553;51.814;4.600;2023-05-16T02:33:24;8.15;;;1.67;;
75005;SDS011;63553;51.814;4.600;2023-05-16T02:35:51;3.90;;;1.67;;
75005;SDS011;63553;51.814;4.600;2023-05-16T02:38:16;4.88;;;1.92;;
75005;SDS011;63553;51.814;4.600;2023-05-16T02:40:42;7.97;;;1.65;;
75005;SDS011;63553;51.814;4.600;2023-05-16T02:43:07;8.30;;;1.75;;
75005;SDS011;63553;51.814;4.600;2023-05-16T02:45:32;9.80;;;1.80;;
75005;SDS011;63553;51.814;4.600;2023-05-16T02:47:58;3.90;;;1.60;;
75005;SDS011;63553;51.814;4.600;2023-05-16T02:50:23;6.73;;;1.80;;
75005;SDS011;63553;51.814;4.600;2023-05-16T02:52:48;5.33;;;1.50;;
75005;SDS011;63553;51.814;4.600;2023-05-16T02:55:13;8.67;;;1.57;;
75005;SDS011;63553;51.814;4.600;2023-05-16T02:57:39;7.53;;;1.97;;
75005;SDS011;63553;51.814;4.600;2023-05-16T03:00:04;5.60;;;1.60;;
75005;SDS011;63553;51.814;4.600;2023-05-16T03:02:30;4.53;;;1.52;;
75005;SDS011;63553;51.814;4.600;2023-05-16T03:04:55;6.67;;;1.20;;
75005;SDS011;63553;51.814;4.600;2023-05-16T03:07:21;4.53;;;1.37;;
75005;SDS011;63553;51.814;4.600;2023-05-16T03:09:46;5.83;;;1.30;;
75005;SDS011;63553;51.814;4.600;2023-05-16T03:12:11;5.83;;;1.33;;
75005;SDS011;63553;51.814;4.600;2023-05-16T03:14:37;10.23;;;1.63;;
75005;SDS011;63553;51.814;4.600;2023-05-16T03:17:02;3.87;;;1.30;;
75005;SDS011;63553;51.814;4.600;2023-05-16T03:19:27;8.07;;;1.80;;
75005;SDS011;63553;51.814;4.600;2023-05-16T03:21:53;3.97;;;1.40;;
75005;SDS011;63553;51.814;4.600;2023-05-16T03:24:18;5.57;;;1.60;;
75005;SDS011;63553;51.814;4.600;2023-05-16T03:26:45;5.38;;;1.45;;
75005;SDS011;63553;51.814;4.600;2023-05-16T03:29:10;6.97;;;1.20;;
75005;SDS011;63553;51.814;4.600;2023-05-16T03:31:36;7.20;;;1.77;;
75005;SDS011;63553;51.814;4.600;2023-05-16T03:34:01;9.45;;;1.75;;
75005;SDS011;63553;51.814;4.600;2023-05-16T03:36:27;10.32;;;2.58;;
75005;SDS011;63553;51.814;4.600;2023-05-16T03:38:52;6.23;;;1.60;;
75005;SDS011;63553;51.814;4.600;2023-05-16T03:41:18;4.17;;;1.27;;
75005;SDS011;63553;51.814;4.600;2023-05-16T03:43:43;5.20;;;1.30;;
75005;SDS011;63553;51.814;4.600;2023-05-16T03:46:08;6.50;;;1.43;;
75005;SDS011;63553;51.814;4.600;2023-05-16T03:48:34;5.00;;;1.17;;
75005;SDS011;63553;51.814;4.600;2023-05-16T03:50:59;4.77;;;1.13;;
75005;SDS011;63553;51.814;4.600;2023-05-16T03:53:24;5.90;;;1.30;;
75005;SDS011;63553;51.814;4.600;2023-05-16T03:55:50;4.20;;;1.40;;
75005;SDS011;63553;51.814;4.600;2023-05-16T03:58:15;4.30;;;1.50;;
75005;SDS011;63553;51.814;4.600;2023-05-16T04:00:40;6.82;;;1.88;;
75005;SDS011;63553;51.814;4.600;2023-05-16T04:03:06;5.30;;;1.17;;
75005;SDS011;63553;51.814;4.600;2023-05-16T04:05:32;9.85;;;1.25;;
75005;SDS011;63553;51.814;4.600;2023-05-16T04:07:58;3.45;;;1.40;;
75005;SDS011;63553;51.814;4.600;2023-05-16T04:10:23;7.33;;;2.07;;
75005;SDS011;63553;51.814;4.600;2023-05-16T04:12:48;5.93;;;1.50;;
75005;SDS011;63553;51.814;4.600;2023-05-16T04:15:14;35.57;;;8.90;;
75005;SDS011;63553;51.814;4.600;2023-05-16T04:17:39;27.60;;;7.90;;
75005;SDS011;63553;51.814;4.600;2023-05-16T04:20:05;5.40;;;1.55;;
75005;SDS011;63553;51.814;4.600;2023-05-16T04:22:31;4.47;;;1.65;;
75005;SDS011;63553;51.814;4.600;2023-05-16T04:24:56;4.30;;;1.08;;
75005;SDS011;63553;51.814;4.600;2023-05-16T04:27:22;5.45;;;1.42;;
75005;SDS011;63553;51.814;4.600;2023-05-16T04:29:48;6.72;;;1.58;;
75005;SDS011;63553;51.814;4.600;2023-05-16T04:32:13;4.82;;;1.80;;
75005;SDS011;63553;51.814;4.600;2023-05-16T04:34:39;6.45;;;1.38;;
75005;SDS011;63553;51.814;4.600;2023-05-16T04:37:05;3.13;;;1.42;;
75005;SDS011;63553;51.814;4.600;2023-05-16T04:39:31;6.65;;;1.40;;
75005;SDS011;63553;51.814;4.600;2023-05-16T04:41:56;4.20;;;1.88;;
75005;SDS011;63553;51.814;4.600;2023-05-16T04:44:23;6.72;;;2.05;;
75005;SDS011;63553;51.814;4.600;2023-05-16T04:46:52;1.67;;;0.90;;
75005;SDS011;63553;51.814;4.600;2023-05-16T04:49:18;2.88;;;1.17;;
75005;SDS011;63553;51.814;4.600;2023-05-16T04:51:43;7.00;;;1.30;;
75005;SDS011;63553;51.814;4.600;2023-05-16T04:54:09;8.77;;;1.95;;
75005;SDS011;63553;51.814;4.600;2023-05-16T04:56:34;5.57;;;1.80;;
75005;SDS011;63553;51.814;4.600;2023-05-16T04:59:00;4.97;;;1.52;;
75005;SDS011;63553;51.814;4.600;2023-05-16T05:01:26;3.08;;;1.25;;
75005;SDS011;63553;51.814;4.600;2023-05-16T05:03:51;8.77;;;1.80;;
75005;SDS011;63553;51.814;4.600;2023-05-16T05:06:17;7.10;;;1.57;;
75005;SDS011;63553;51.814;4.600;2023-05-16T05:08:42;5.80;;;1.40;;
75005;SDS011;63553;51.814;4.600;2023-05-16T05:11:07;7.43;;;1.20;;
75005;SDS011;63553;51.814;4.600;2023-05-16T05:13:33;5.80;;;1.73;;
75005;SDS011;63553;51.814;4.600;2023-05-16T05:15:58;5.83;;;1.33;;
75005;SDS011;63553;51.814;4.600;2023-05-16T05:18:23;7.20;;;2.03;;
75005;SDS011;63553;51.814;4.600;2023-05-16T05:20:49;5.37;;;1.90;;
75005;SDS011;63553;51.814;4.600;2023-05-16T05:23:14;8.40;;;1.23;;
75005;SDS011;63553;51.814;4.600;2023-05-16T05:25:39;0.85;;;0.85;;
75005;SDS011;63553;51.814;4.600;2023-05-16T05:28:05;7.60;;;1.80;;
75005;SDS011;63553;51.814;4.600;2023-05-16T05:30:30;3.30;;;1.48;;
75005;SDS011;63553;51.814;4.600;2023-05-16T05:32:56;4.18;;;1.20;;
75005;SDS011;63553;51.814;4.600;2023-05-16T05:35:21;3.83;;;1.00;;
75005;SDS011;63553;51.814;4.600;2023-05-16T05:37:46;6.73;;;1.90;;
75005;SDS011;63553;51.814;4.600;2023-05-16T05:40:12;4.63;;;1.10;;
75005;SDS011;63553;51.814;4.600;2023-05-16T05:42:37;4.22;;;0.93;;
75005;SDS011;63553;51.814;4.600;2023-05-16T05:45:03;2.23;;;1.00;;
75005;SDS011;63553;51.814;4.600;2023-05-16T05:47:28;2.28;;;1.10;;
75005;SDS011;63553;51.814;4.600;2023-05-16T05:49:54;3.63;;;1.08;;
75005;SDS011;63553;51.814;4.600;2023-05-16T05:52:20;3.13;;;1.10;;
75005;SDS011;63553;51.814;4.600;2023-05-16T05:54:46;2.13;;;1.13;;
75005;SDS011;63553;51.814;4.600;2023-05-16T05:57:12;2.17;;;1.25;;
75005;SDS011;63553;51.814;4.600;2023-05-16T05:59:37;4.05;;;0.90;;
75005;SDS011;63553;51.814;4.600;2023-05-16T06:02:02;5.33;;;1.13;;
75005;SDS011;63553;51.814;4.600;2023-05-16T06:04:28;3.60;;;0.88;;
75005;SDS011;63553;51.814;4.600;2023-05-16T06:06:53;2.93;;;1.00;;
75005;SDS011;63553;51.814;4.600;2023-05-16T06:09:20;2.88;;;1.10;;
75005;SDS011;63553;51.814;4.600;2023-05-16T06:11:45;3.60;;;1.02;;
75005;SDS011;63553;51.814;4.600;2023-05-16T06:14:11;8.90;;;1.10;;
75005;SDS011;63553;51.814;4.600;2023-05-16T06:16:37;2.33;;;0.90;;
75005;SDS011;63553;51.814;4.600;2023-05-16T06:19:04;2.13;;;1.10;;
75005;SDS011;63553;51.814;4.600;2023-05-16T06:21:29;1.98;;;0.80;;
75005;SDS011;63553;51.814;4.600;2023-05-16T06:23:55;2.50;;;1.08;;
75005;SDS011;63553;51.814;4.600;2023-05-16T06:26:20;2.87;;;1.10;;
75005;SDS011;63553;51.814;4.600;2023-05-16T06:28:46;3.45;;;1.30;;
75005;SDS011;63553;51.814;4.600;2023-05-16T06:31:12;3.37;;;1.17;;
75005;SDS011;63553;51.814;4.600;2023-05-16T06:33:37;5.80;;;1.00;;
75005;SDS011;63553;51.814;4.600;2023-05-16T06:36:03;2.90;;;1.30;;
75005;SDS011;63553;51.814;4.600;2023-05-16T06:38:28;2.10;;;0.88;;
75005;SDS011;63553;51.814;4.600;2023-05-16T06:40:54;2.20;;;1.13;;
75005;SDS011;63553;51.814;4.600;2023-05-16T06:43:19;4.88;;;1.20;;
75005;SDS011;63553;51.814;4.600;2023-05-16T06:45:44;2.43;;;0.77;;
75005;SDS011;63553;51.814;4.600;2023-05-16T06:48:13;2.45;;;0.90;;
75005;SDS011;63553;51.814;4.600;2023-05-16T06:50:39;3.13;;;1.02;;
75005;SDS011;63553;51.814;4.600;2023-05-16T06:53:04;2.20;;;1.00;;
75005;SDS011;63553;51.814;4.600;2023-05-16T06:55:31;1.88;;;0.98;;
75005;SDS011;63553;51.814;4.600;2023-05-16T06:57:57;1.38;;;0.98;;
75005;SDS011;63553;51.814;4.600;2023-05-16T07:00:22;6.28;;;1.05;;
75005;SDS011;63553;51.814;4.600;2023-05-16T07:02:47;1.67;;;0.90;;
75005;SDS011;63553;51.814;4.600;2023-05-16T07:05:13;2.87;;;0.90;;
75005;SDS011;63553;51.814;4.600;2023-05-16T07:07:38;1.80;;;0.85;;
75005;SDS011;63553;51.814;4.600;2023-05-16T07:10:04;1.13;;;0.80;;
75005;SDS011;63553;51.814;4.600;2023-05-16T07:12:29;2.03;;;0.82;;
75005;SDS011;63553;51.814;4.600;2023-05-16T07:14:55;1.85;;;0.80;;
75005;SDS011;63553;51.814;4.600;2023-05-16T07:17:20;1.42;;;0.90;;
75005;SDS011;63553;51.814;4.600;2023-05-16T07:19:45;1.80;;;0.88;;
75005;SDS011;63553;51.814;4.600;2023-05-16T07:22:11;2.05;;;0.95;;
75005;SDS011;63553;51.814;4.600;2023-05-16T07:24:36;2.23;;;1.00;;
75005;SDS011;63553;51.814;4.600;2023-05-16T07:27:02;2.63;;;0.90;;
75005;SDS011;63553;51.814;4.600;2023-05-16T07:29:27;1.88;;;0.95;;
75005;SDS011;63553;51.814;4.600;2023-05-16T07:31:54;2.22;;;0.85;;
75005;SDS011;63553;51.814;4.600;2023-05-16T07:34:20;2.15;;;0.93;;
75005;SDS011;63553;51.814;4.600;2023-05-16T07:36:45;2.35;;;0.80;;
75005;SDS011;63553;51.814;4.600;2023-05-16T07:39:11;2.38;;;0.90;;
75005;SDS011;63553;51.814;4.600;2023-05-16T07:41:36;2.73;;;0.93;;
75005;SDS011;63553;51.814;4.600;2023-05-16T07:44:01;1.90;;;1.00;;
75005;SDS011;63553;51.814;4.600;2023-05-16T07:46:27;9.80;;;1.15;;
75005;SDS011;63553;51.814;4.600;2023-05-16T07:48:52;9.13;;;1.25;;
75005;SDS011;63553;51.814;4.600;2023-05-16T07:51:17;1.65;;;0.95;;
75005;SDS011;63553;51.814;4.600;2023-05-16T07:53:43;8.33;;;1.60;;
75005;SDS011;63553;51.814;4.600;2023-05-16T07:56:08;4.35;;;1.27;;
75005;SDS011;63553;51.814;4.600;2023-05-16T07:58:34;6.25;;;1.10;;
75005;SDS011;63553;51.814;4.600;2023-05-16T08:00:59;3.08;;;1.20;;
75005;SDS011;63553;51.814;4.600;2023-05-16T08:03:25;5.75;;;1.50;;
75005;SDS011;63553;51.814;4.600;2023-05-16T08:05:50;1.25;;;0.85;;
75005;SDS011;63553;51.814;4.600;2023-05-16T08:08:15;3.63;;;1.30;;
75005;SDS011;63553;51.814;4.600;2023-05-16T08:10:41;2.92;;;1.20;;
75005;SDS011;63553;51.814;4.600;2023-05-16T08:13:06;2.37;;;1.13;;
75005;SDS011;63553;51.814;4.600;2023-05-16T08:15:32;2.45;;;1.35;;
75005;SDS011;63553;51.814;4.600;2023-05-16T08:17:57;2.13;;;1.50;;
75005;SDS011;63553;51.814;4.600;2023-05-16T08:20:23;3.60;;;1.48;;
75005;SDS011;63553;51.814;4.600;2023-05-16T08:22:51;2.75;;;1.10;;
75005;SDS011;63553;51.814;4.600;2023-05-16T08:25:17;2.75;;;1.17;;
75005;SDS011;63553;51.814;4.600;2023-05-16T08:27:47;6.40;;;1.52;;
75005;SDS011;63553;51.814;4.600;2023-05-16T08:30:13;5.18;;;1.42;;
75005;SDS011;63553;51.814;4.600;2023-05-16T08:32:39;6.20;;;2.22;;
75005;SDS011;63553;51.814;4.600;2023-05-16T08:35:04;6.35;;;1.80;;
75005;SDS011;63553;51.814;4.600;2023-05-16T08:37:30;14.32;;;3.67;;
75005;SDS011;63553;51.814;4.600;2023-05-16T08:39:55;22.13;;;3.85;;
75005;SDS011;63553;51.814;4.600;2023-05-16T08:42:22;4.70;;;1.63;;
75005;SDS011;63553;51.814;4.600;2023-05-16T08:44:47;7.80;;;2.05;;
75005;SDS011;63553;51.814;4.600;2023-05-16T08:47:19;6.65;;;1.40;;
75005;SDS011;63553;51.814;4.600;2023-05-16T08:49:47;4.82;;;1.13;;
75005;SDS011;63553;51.814;4.600;2023-05-16T08:52:16;4.97;;;1.42;;
75005;SDS011;63553;51.814;4.600;2023-05-16T08:54:43;3.80;;;0.98;;
75005;SDS011;63553;51.814;4.600;2023-05-16T08:57:10;3.30;;;1.10;;
75005;SDS011;63553;51.814;4.600;2023-05-16T08:59:35;4.65;;;1.20;;
75005;SDS011;63553;51.814;4.600;2023-05-16T09:02:01;2.58;;;1.05;;
75005;SDS011;63553;51.814;4.600;2023-05-16T09:04:27;3.50;;;1.10;;
75005;SDS011;63553;51.814;4.600;2023-05-16T09:06:53;1.33;;;1.10;;
75005;SDS011;63553;51.814;4.600;2023-05-16T09:09:18;3.33;;;1.10;;
75005;SDS011;63553;51.814;4.600;2023-05-16T09:11:44;2.90;;;1.10;;
75005;SDS011;63553;51.814;4.600;2023-05-16T09:14:10;2.70;;;1.08;;
75005;SDS011;63553;51.814;4.600;2023-05-16T09:16:35;1.48;;;1.00;;
75005;SDS011;63553;51.814;4.600;2023-05-16T09:19:00;1.60;;;0.73;;
75005;SDS011;63553;51.814;4.600;2023-05-16T09:21:27;4.55;;;0.77;;
75005;SDS011;63553;51.814;4.600;2023-05-16T09:23:53;1.83;;;0.85;;
75005;SDS011;63553;51.814;4.600;2023-05-16T09:26:19;1.52;;;0.90;;
75005;SDS011;63553;51.814;4.600;2023-05-16T09:28:45;1.98;;;1.15;;
75005;SDS011;63553;51.814;4.600;2023-05-16T09:31:24;1.95;;;1.02;;
75005;SDS011;63553;51.814;4.600;2023-05-16T09:33:51;2.10;;;0.90;;
75005;SDS011;63553;51.814;4.600;2023-05-16T09:36:19;2.38;;;1.08;;
75005;SDS011;63553;51.814;4.600;2023-05-16T09:38:45;1.70;;;0.80;;
75005;SDS011;63553;51.814;4.600;2023-05-16T09:41:10;0.82;;;0.82;;
75005;SDS011;63553;51.814;4.600;2023-05-16T09:43:39;1.35;;;0.80;;
75005;SDS011;63553;51.814;4.600;2023-05-16T09:46:05;0.85;;;0.70;;
75005;SDS011;63553;51.814;4.600;2023-05-16T09:48:31;4.43;;;1.13;;
75005;SDS011;63553;51.814;4.600;2023-05-16T09:50:57;2.53;;;1.00;;
75005;SDS011;63553;51.814;4.600;2023-05-16T09:53:28;2.47;;;1.02;;
75005;SDS011;63553;51.814;4.600;2023-05-16T09:56:02;1.30;;;0.80;;
75005;SDS011;63553;51.814;4.600;2023-05-16T09:58:30;2.15;;;0.98;;
75005;SDS011;63553;51.814;4.600;2023-05-16T10:00:56;1.67;;;0.98;;
75005;SDS011;63553;51.814;4.600;2023-05-16T10:03:23;1.65;;;0.90;;
75005;SDS011;63553;51.814;4.600;2023-05-16T10:05:49;3.22;;;0.82;;
75005;SDS011;63553;51.814;4.600;2023-05-16T10:08:16;2.92;;;0.80;;
75005;SDS011;63553;51.814;4.600;2023-05-16T10:10:44;1.85;;;0.80;;
75005;SDS011;63553;51.814;4.600;2023-05-16T10:13:10;1.55;;;0.70;;
75005;SDS011;63553;51.814;4.600;2023-05-16T10:15:36;2.50;;;0.75;;
75005;SDS011;63553;51.814;4.600;2023-05-16T10:18:03;2.00;;;0.95;;
75005;SDS011;63553;51.814;4.600;2023-05-16T10:20:35;1.77;;;0.90;;
75005;SDS011;63553;51.814;4.600;2023-05-16T10:23:01;1.77;;;0.63;;
75005;SDS011;63553;51.814;4.600;2023-05-16T10:25:31;2.08;;;0.75;;
75005;SDS011;63553;51.814;4.600;2023-05-16T10:28:00;1.33;;;0.77;;
75005;SDS011;63553;51.814;4.600;2023-05-16T10:30:26;2.05;;;0.90;;
75005;SDS011;63553;51.814;4.600;2023-05-16T10:32:52;1.05;;;0.60;;
75005;SDS011;63553;51.814;4.600;2023-05-16T10:35:19;1.15;;;0.80;;
75005;SDS011;63553;51.814;4.600;2023-05-16T10:37:45;1.52;;;0.65;;
75005;SDS011;63553;51.814;4.600;2023-05-16T10:40:12;1.90;;;0.90;;
75005;SDS011;63553;51.814;4.600;2023-05-16T10:42:38;1.33;;;0.75;;
75005;SDS011;63553;51.814;4.600;2023-05-16T10:45:16;1.17;;;0.82;;
75005;SDS011;63553;51.814;4.600;2023-05-16T10:47:49;1.10;;;0.70;;
75005;SDS011;63553;51.814;4.600;2023-05-16T10:50:38;0.73;;;0.70;;
75005;SDS011;63553;51.814;4.600;2023-05-16T10:56:23;3.00;;;0.90;;
75005;SDS011;63553;51.814;4.600;2023-05-16T11:01:13;3.97;;;1.27;;
75005;SDS011;63553;51.814;4.600;2023-05-16T11:06:23;2.45;;;0.70;;
75005;SDS011;63553;51.814;4.600;2023-05-16T11:11:41;1.42;;;0.60;;
75005;SDS011;63553;51.814;4.600;2023-05-16T11:16:47;1.95;;;0.80;;
75005;SDS011;63553;51.814;4.600;2023-05-16T11:19:18;2.08;;;0.90;;
75005;SDS011;63553;51.814;4.600;2023-05-16T11:22:03;2.47;;;0.85;;
75005;SDS011;63553;51.814;4.600;2023-05-16T11:25:08;1.45;;;0.63;;
75005;SDS011;63553;51.814;4.600;2023-05-16T11:27:34;2.63;;;0.80;;
75005;SDS011;63553;51.814;4.600;2023-05-16T11:32:29;1.00;;;0.70;;
75005;SDS011;63553;51.814;4.600;2023-05-16T11:34:55;0.77;;;0.70;;
75005;SDS011;63553;51.814;4.600;2023-05-16T11:37:22;2.05;;;1.15;;
75005;SDS011;63553;51.814;4.600;2023-05-16T11:39:47;3.63;;;0.95;;
75005;SDS011;63553;51.814;4.600;2023-05-16T11:42:13;1.80;;;0.70;;
75005;SDS011;63553;51.814;4.600;2023-05-16T11:44:39;3.15;;;0.80;;
75005;SDS011;63553;51.814;4.600;2023-05-16T11:47:05;1.65;;;0.70;;
75005;SDS011;63553;51.814;4.600;2023-05-16T11:49:31;2.55;;;0.80;;
75005;SDS011;63553;51.814;4.600;2023-05-16T11:51:58;2.53;;;0.75;;
75005;SDS011;63553;51.814;4.600;2023-05-16T11:54:23;2.67;;;0.98;;
75005;SDS011;63553;51.814;4.600;2023-05-16T11:56:50;1.23;;;0.70;;
75005;SDS011;63553;51.814;4.600;2023-05-16T11:59:16;1.95;;;0.90;;
75005;SDS011;63553;51.814;4.600;2023-05-16T12:01:42;1.70;;;0.70;;
75005;SDS011;63553;51.814;4.600;2023-05-16T12:04:08;1.65;;;0.68;;
75005;SDS011;63553;51.814;4.600;2023-05-16T12:06:37;1.27;;;0.60;;
75005;SDS011;63553;51.814;4.600;2023-05-16T12:09:03;2.85;;;1.00;;
75005;SDS011;63553;51.814;4.600;2023-05-16T12:11:38;1.63;;;1.02;;
75005;SDS011;63553;51.814;4.600;2023-05-16T12:14:08;3.22;;;0.90;;
75005;SDS011;63553;51.814;4.600;2023-05-16T12:16:35;0.90;;;0.70;;
75005;SDS011;63553;51.814;4.600;2023-05-16T12:19:02;2.33;;;0.95;;
75005;SDS011;63553;51.814;4.600;2023-05-16T12:21:32;1.15;;;0.90;;
75005;SDS011;63553;51.814;4.600;2023-05-16T12:23:57;1.50;;;0.80;;
75005;SDS011;63553;51.814;4.600;2023-05-16T12:26:32;1.95;;;0.80;;
75005;SDS011;63553;51.814;4.600;2023-05-16T12:29:01;2.17;;;0.80;;
75005;SDS011;63553;51.814;4.600;2023-05-16T12:31:29;1.63;;;0.82;;
75005;SDS011;63553;51.814;4.600;2023-05-16T12:33:55;1.67;;;0.65;;
75005;SDS011;63553;51.814;4.600;2023-05-16T12:36:21;2.28;;;0.80;;
75005;SDS011;63553;51.814;4.600;2023-05-16T12:38:48;3.42;;;1.00;;
75005;SDS011;63553;51.814;4.600;2023-05-16T12:41:17;1.08;;;0.80;;
75005;SDS011;63553;51.814;4.600;2023-05-16T12:43:44;1.67;;;0.63;;
75005;SDS011;63553;51.814;4.600;2023-05-16T12:46:09;1.70;;;0.90;;
75005;SDS011;63553;51.814;4.600;2023-05-16T12:48:38;2.35;;;0.70;;
75005;SDS011;63553;51.814;4.600;2023-05-16T12:51:16;3.70;;;0.80;;
75005;SDS011;63553;51.814;4.600;2023-05-16T12:53:46;1.48;;;1.00;;
75005;SDS011;63553;51.814;4.600;2023-05-16T12:56:13;0.98;;;0.82;;
75005;SDS011;63553;51.814;4.600;2023-05-16T12:58:40;2.95;;;0.88;;
75005;SDS011;63553;51.814;4.600;2023-05-16T13:01:06;3.20;;;0.95;;
75005;SDS011;63553;51.814;4.600;2023-05-16T13:03:31;2.00;;;0.65;;
75005;SDS011;63553;51.814;4.600;2023-05-16T13:05:58;2.22;;;1.00;;
75005;SDS011;63553;51.814;4.600;2023-05-16T13:08:24;1.75;;;1.02;;
75005;SDS011;63553;51.814;4.600;2023-05-16T13:10:49;2.47;;;1.25;;
75005;SDS011;63553;51.814;4.600;2023-05-16T13:13:15;2.33;;;0.93;;
75005;SDS011;63553;51.814;4.600;2023-05-16T13:15:40;2.50;;;0.93;;
75005;SDS011;63553;51.814;4.600;2023-05-16T13:18:06;1.05;;;0.70;;
75005;SDS011;63553;51.814;4.600;2023-05-16T13:20:32;4.13;;;0.80;;
75005;SDS011;63553;51.814;4.600;2023-05-16T13:22:57;1.52;;;0.77;;
75005;SDS011;63553;51.814;4.600;2023-05-16T13:25:22;2.22;;;0.80;;
75005;SDS011;63553;51.814;4.600;2023-05-16T13:27:48;3.93;;;1.00;;
75005;SDS011;63553;51.814;4.600;2023-05-16T13:30:13;0.60;;;0.60;;
75005;SDS011;63553;51.814;4.600;2023-05-16T13:32:39;1.15;;;0.95;;
75005;SDS011;63553;51.814;4.600;2023-05-16T13:35:05;0.60;;;0.60;;
75005;SDS011;63553;51.814;4.600;2023-05-16T13:37:30;1.23;;;0.73;;
75005;SDS011;63553;51.814;4.600;2023-05-16T13:39:56;5.57;;;1.57;;
75005;SDS011;63553;51.814;4.600;2023-05-16T13:42:21;3.13;;;0.80;;
75005;SDS011;63553;51.814;4.600;2023-05-16T13:44:47;0.85;;;0.85;;
75005;SDS011;63553;51.814;4.600;2023-05-16T13:47:12;2.65;;;0.80;;
75005;SDS011;63553;51.814;4.600;2023-05-16T13:49:37;1.93;;;0.90;;
75005;SDS011;63553;51.814;4.600;2023-05-16T13:52:03;0.93;;;0.63;;
75005;SDS011;63553;51.814;4.600;2023-05-16T13:54:29;0.73;;;0.60;;
75005;SDS011;63553;51.814;4.600;2023-05-16T13:56:55;0.82;;;0.82;;
75005;SDS011;63553;51.814;4.600;2023-05-16T13:59:21;1.45;;;0.52;;
75005;SDS011;63553;51.814;4.600;2023-05-16T14:01:47;1.00;;;0.80;;
75005;SDS011;63553;51.814;4.600;2023-05-16T14:04:12;1.50;;;0.60;;
75005;SDS011;63553;51.814;4.600;2023-05-16T14:06:37;3.03;;;0.70;;
75005;SDS011;63553;51.814;4.600;2023-05-16T14:09:03;1.30;;;0.70;;
75005;SDS011;63553;51.814;4.600;2023-05-16T14:11:28;1.65;;;0.82;;
75005;SDS011;63553;51.814;4.600;2023-05-16T14:13:53;1.20;;;0.70;;
75005;SDS011;63553;51.814;4.600;2023-05-16T14:16:19;1.55;;;0.75;;
75005;SDS011;63553;51.814;4.600;2023-05-16T14:18:45;0.88;;;0.60;;
75005;SDS011;63553;51.814;4.600;2023-05-16T14:21:10;0.90;;;0.82;;
75005;SDS011;63553;51.814;4.600;2023-05-16T14:23:36;2.35;;;0.80;;
75005;SDS011;63553;51.814;4.600;2023-05-16T14:26:02;3.25;;;0.82;;
75005;SDS011;63553;51.814;4.600;2023-05-16T14:28:28;1.60;;;0.93;;
75005;SDS011;63553;51.814;4.600;2023-05-16T14:30:54;1.20;;;0.90;;
75005;SDS011;63553;51.814;4.600;2023-05-16T14:33:19;0.75;;;0.57;;
75005;SDS011;63553;51.814;4.600;2023-05-16T14:35:45;1.80;;;0.80;;
75005;SDS011;63553;51.814;4.600;2023-05-16T14:38:13;2.28;;;0.75;;
75005;SDS011;63553;51.814;4.600;2023-05-16T14:40:38;2.47;;;0.70;;
75005;SDS011;63553;51.814;4.600;2023-05-16T14:43:04;1.00;;;0.67;;
75005;SDS011;63553;51.814;4.600;2023-05-16T14:45:29;1.50;;;0.87;;
75005;SDS011;63553;51.814;4.600;2023-05-16T14:47:54;1.27;;;0.60;;
75005;SDS011;63553;51.814;4.600;2023-05-16T14:50:20;2.30;;;0.70;;
75005;SDS011;63553;51.814;4.600;2023-05-16T14:52:45;1.60;;;0.80;;
75005;SDS011;63553;51.814;4.600;2023-05-16T14:55:11;0.88;;;0.70;;
75005;SDS011;63553;51.814;4.600;2023-05-16T14:57:36;1.67;;;0.90;;
75005;SDS011;63553;51.814;4.600;2023-05-16T15:00:02;1.60;;;0.80;;
75005;SDS011;63553;51.814;4.600;2023-05-16T15:02:28;1.98;;;0.93;;
75005;SDS011;63553;51.814;4.600;2023-05-16T15:04:53;0.70;;;0.70;;
75005;SDS011;63553;51.814;4.600;2023-05-16T15:07:18;0.73;;;0.67;;
75005;SDS011;63553;51.814;4.600;2023-05-16T15:09:44;1.30;;;0.70;;
75005;SDS011;63553;51.814;4.600;2023-05-16T15:12:10;3.92;;;0.90;;